createdAt,value
2022-07-28T00:00:15.482Z,53.24
2022-07-28T00:02:42.827Z,53.10
2022-07-28T00:05:10.720Z,52.87
2022-07-28T00:07:38.072Z,52.78
2022-07-28T00:10:06.126Z,52.72
2022-07-28T00:12:33.553Z,52.97
2022-07-28T00:15:01.402Z,53.34
2022-07-28T00:17:28.764Z,53.28
2022-07-28T00:19:56.092Z,53.42
2022-07-28T00:22:23.402Z,53.27
2022-07-28T00:24:50.670Z,53.26
2022-07-28T00:27:19.366Z,53.05
2022-07-28T00:29:50.403Z,53.39
2022-07-28T00:32:20.591Z,53.29
2022-07-28T00:34:48.315Z,53.06
2022-07-28T00:37:15.556Z,53.43
2022-07-28T00:39:43.984Z,53.23
2022-07-28T00:42:12.279Z,52.95
2022-07-28T00:44:42.146Z,53.20
2022-07-28T00:47:09.602Z,53.10
2022-07-28T00:49:36.886Z,53.58
2022-07-28T00:52:05.875Z,53.62
2022-07-28T00:54:33.749Z,53.22
2022-07-28T00:57:01.203Z,53.28
2022-07-28T00:59:28.778Z,53.42
2022-07-28T01:01:56.642Z,53.31
2022-07-28T01:04:25.213Z,53.03
2022-07-28T01:07:13.107Z,53.19
2022-07-28T01:10:04.025Z,53.11
2022-07-28T01:12:36.995Z,53.22
2022-07-28T01:15:43.696Z,53.21
2022-07-28T01:18:17.776Z,53.35
2022-07-28T01:20:50.861Z,53.59
2022-07-28T01:23:18.067Z,53.31
2022-07-28T01:26:00.336Z,53.60
2022-07-28T01:28:59.318Z,53.36
2022-07-28T01:31:31.310Z,53.12
2022-07-28T01:34:05.797Z,53.35
2022-07-28T01:36:55.374Z,53.69
2022-07-28T01:39:25.437Z,53.38
2022-07-28T01:41:56.177Z,53.70
2022-07-28T01:44:25.306Z,53.63
2022-07-28T01:46:54.075Z,53.53
2022-07-28T01:49:23.401Z,53.45
2022-07-28T01:51:52.411Z,53.61
2022-07-28T01:54:22.134Z,53.36
2022-07-28T01:56:51.823Z,53.83
2022-07-28T01:59:20.175Z,53.78
2022-07-28T02:01:48.736Z,53.71
2022-07-28T02:04:20.220Z,53.23
2022-07-28T02:06:48.668Z,53.58
2022-07-28T02:09:17.665Z,53.55
2022-07-28T02:11:46.463Z,53.58
2022-07-28T02:14:18.210Z,53.78
2022-07-28T02:16:49.814Z,53.39
2022-07-28T02:19:19.465Z,53.49
2022-07-28T02:21:48.873Z,53.83
2022-07-28T02:24:20.026Z,53.50
2022-07-28T02:26:53.592Z,53.69
2022-07-28T02:29:49.093Z,53.70
2022-07-28T02:32:27.927Z,53.85
2022-07-28T02:35:01.571Z,53.83
2022-07-28T02:37:36.235Z,53.39
2022-07-28T02:40:06.457Z,53.64
2022-07-28T02:42:36.843Z,53.50
2022-07-28T02:45:06.951Z,53.94
2022-07-28T02:47:40.660Z,53.49
2022-07-28T02:50:10.685Z,53.66
2022-07-28T02:52:39.399Z,54.07
2022-07-28T02:55:07.934Z,54.32
2022-07-28T02:57:37.871Z,54.20
2022-07-28T03:00:05.690Z,54.54
2022-07-28T03:02:36.700Z,54.52
2022-07-28T03:05:07.570Z,54.14
2022-07-28T03:07:50.486Z,54.49
2022-07-28T03:10:34.013Z,54.67
2022-07-28T03:13:07.294Z,54.35
2022-07-28T03:15:35.064Z,54.57
2022-07-28T03:18:03.829Z,54.66
2022-07-28T03:20:32.050Z,54.09
2022-07-28T03:22:59.586Z,53.89
2022-07-28T03:25:35.038Z,54.04
2022-07-28T03:28:07.198Z,54.08
2022-07-28T03:30:41.746Z,54.06
2022-07-28T03:33:09.969Z,54.35
2022-07-28T03:35:40.072Z,53.80
2022-07-28T03:38:25.789Z,54.17
2022-07-28T03:40:55.658Z,53.80
2022-07-28T03:43:25.594Z,53.58
2022-07-28T03:45:52.960Z,53.53
2022-07-28T03:48:24.693Z,53.38
2022-07-28T03:50:51.980Z,53.48
2022-07-28T03:53:22.082Z,53.09
2022-07-28T03:55:53.560Z,53.12
2022-07-28T03:58:26.117Z,53.20
2022-07-28T04:00:57.212Z,53.12
2022-07-28T04:03:42.689Z,53.47
2022-07-28T04:06:12.929Z,53.07
2022-07-28T04:08:40.294Z,53.54
2022-07-28T04:11:07.948Z,53.50
2022-07-28T04:13:37.098Z,53.62
2022-07-28T04:16:07.021Z,53.25
2022-07-28T04:18:35.196Z,53.48
2022-07-28T04:21:03.073Z,53.50
2022-07-28T04:23:30.978Z,53.41
2022-07-28T04:25:58.423Z,53.66
2022-07-28T04:28:25.765Z,53.34
2022-07-28T04:30:53.373Z,53.38
2022-07-28T04:33:20.873Z,53.36
2022-07-28T04:35:48.191Z,53.48
2022-07-28T04:38:17.893Z,53.27
2022-07-28T04:40:48.543Z,53.23
2022-07-28T04:43:15.912Z,53.50
2022-07-28T04:45:53.600Z,53.42
2022-07-28T04:48:23.575Z,53.29
2022-07-28T04:50:53.011Z,53.43
2022-07-28T04:53:22.340Z,53.58
2022-07-28T04:55:51.669Z,53.39
2022-07-28T04:58:21.165Z,53.69
2022-07-28T05:00:50.850Z,53.42
2022-07-28T05:03:19.183Z,53.14
2022-07-28T05:05:52.907Z,53.35
2022-07-28T05:08:26.259Z,52.71
2022-07-28T05:10:55.968Z,52.54
2022-07-28T05:13:23.961Z,52.61
2022-07-28T05:15:51.329Z,52.46
2022-07-28T05:18:18.703Z,52.39
2022-07-28T05:20:45.993Z,52.45
2022-07-28T05:23:13.346Z,52.59
2022-07-28T05:25:40.611Z,52.32
2022-07-28T05:28:07.905Z,52.36
2022-07-28T05:30:36.977Z,52.79
2022-07-28T05:33:04.530Z,52.94
2022-07-28T05:35:31.932Z,52.39
2022-07-28T05:37:59.299Z,52.30
2022-07-28T05:40:27.385Z,52.28
2022-07-28T05:42:54.707Z,52.44
2022-07-28T05:45:22.173Z,52.47
2022-07-28T05:47:52.775Z,52.45
2022-07-28T05:50:23.174Z,52.48
2022-07-28T05:52:51.450Z,52.40
2022-07-28T05:55:19.505Z,52.62
2022-07-28T05:57:46.967Z,52.26
2022-07-28T06:00:16.876Z,52.59
2022-07-28T06:02:45.837Z,52.25
2022-07-28T06:05:14.230Z,52.59
2022-07-28T06:07:42.873Z,52.14
2022-07-28T06:10:14.540Z,52.09
2022-07-28T06:12:47.983Z,52.49
2022-07-28T06:15:19.114Z,52.58
2022-07-28T06:17:46.582Z,52.46
2022-07-28T06:20:14.738Z,52.30
2022-07-28T06:22:55.286Z,52.59
2022-07-28T06:25:28.259Z,52.52
2022-07-28T06:28:00.608Z,53.26
2022-07-28T06:30:28.218Z,52.85
2022-07-28T06:32:56.106Z,52.64
2022-07-28T06:35:24.893Z,52.76
2022-07-28T06:37:53.264Z,53.14
2022-07-28T06:40:22.338Z,53.55
2022-07-28T06:42:50.486Z,52.87
2022-07-28T06:45:19.553Z,52.35
2022-07-28T06:47:49.980Z,52.67
2022-07-28T06:50:26.135Z,51.37
2022-07-28T06:52:58.995Z,51.83
2022-07-28T06:55:34.577Z,52.21
2022-07-28T06:58:04.190Z,52.41
2022-07-28T07:00:31.967Z,52.26
2022-07-28T07:03:00.804Z,52.53
2022-07-28T07:05:32.230Z,52.24
2022-07-28T07:08:00.241Z,52.64
2022-07-28T07:10:27.648Z,52.47
2022-07-28T07:12:55.230Z,52.35
2022-07-28T07:15:22.563Z,52.31
2022-07-28T07:17:49.868Z,52.10
2022-07-28T07:20:18.459Z,52.65
2022-07-28T07:22:47.422Z,53.18
2022-07-28T07:25:17.379Z,52.71
2022-07-28T07:27:48.229Z,53.00
2022-07-28T07:30:16.654Z,52.79
2022-07-28T07:32:44.831Z,52.78
2022-07-28T07:35:12.637Z,52.51
2022-07-28T07:37:40.150Z,52.77
2022-07-28T07:40:08.512Z,52.67
2022-07-28T07:42:36.310Z,52.79
2022-07-28T07:45:04.200Z,52.90
2022-07-28T07:47:31.594Z,52.57
2022-07-28T07:50:00.847Z,52.78
2022-07-28T07:52:31.317Z,53.32
2022-07-28T07:54:58.609Z,53.64
2022-07-28T07:57:25.879Z,53.67
2022-07-28T07:59:53.258Z,53.28
2022-07-28T08:02:20.536Z,52.74
2022-07-28T08:04:47.915Z,53.20
2022-07-28T08:07:15.755Z,54.04
2022-07-28T08:09:43.112Z,54.09
2022-07-28T08:12:10.415Z,54.08
2022-07-28T08:14:37.707Z,53.61
2022-07-28T08:17:05.023Z,54.08
2022-07-28T08:19:32.363Z,53.75
2022-07-28T08:22:01.381Z,53.92
2022-07-28T08:24:33.529Z,54.04
2022-07-28T08:27:02.803Z,53.73
2022-07-28T08:29:30.295Z,53.75
2022-07-28T08:31:58.106Z,54.07
2022-07-28T08:34:26.172Z,53.96
2022-07-28T08:36:59.413Z,53.65
2022-07-28T08:39:26.768Z,54.50
2022-07-28T08:42:06.784Z,54.08
2022-07-28T08:44:51.447Z,54.00
2022-07-28T08:47:20.083Z,54.18
2022-07-28T08:49:49.339Z,54.09
2022-07-28T08:52:19.981Z,54.21
2022-07-28T08:54:49.625Z,53.86
2022-07-28T08:57:27.350Z,54.01
2022-07-28T08:59:55.999Z,53.70
2022-07-28T09:02:27.846Z,53.58
2022-07-28T09:04:56.158Z,53.72
2022-07-28T09:07:23.982Z,53.62
2022-07-28T09:09:51.472Z,53.66
2022-07-28T09:12:27.169Z,53.25
2022-07-28T09:14:54.991Z,53.19
2022-07-28T09:17:22.327Z,53.59
2022-07-28T09:19:49.594Z,53.27
2022-07-28T09:22:16.894Z,53.34
2022-07-28T09:24:46.962Z,53.34
2022-07-28T09:27:15.310Z,53.23
2022-07-28T09:30:00.262Z,53.57
2022-07-28T09:32:27.626Z,53.33
2022-07-28T09:34:54.995Z,53.43
2022-07-28T09:37:27.648Z,53.56
2022-07-28T09:40:02.318Z,53.25
2022-07-28T09:42:46.624Z,53.21
2022-07-28T09:45:23.011Z,53.47
2022-07-28T09:48:10.165Z,53.67
2022-07-28T09:50:38.987Z,53.30
2022-07-28T09:53:27.428Z,53.38
2022-07-28T09:55:56.969Z,53.51
2022-07-28T09:58:26.696Z,53.38
2022-07-28T10:01:11.575Z,53.51
2022-07-28T10:03:42.815Z,53.62
2022-07-28T10:06:24.455Z,53.15
2022-07-28T10:08:53.277Z,53.32
2022-07-28T10:11:26.909Z,53.64
2022-07-28T10:14:02.969Z,53.20
2022-07-28T10:16:42.690Z,53.17
2022-07-28T10:19:10.087Z,53.77
2022-07-28T10:21:45.823Z,53.47
2022-07-28T10:24:20.344Z,53.46
2022-07-28T10:26:48.599Z,53.49
2022-07-28T10:29:17.595Z,53.25
2022-07-28T10:31:55.377Z,53.69
2022-07-28T10:34:39.206Z,53.03
2022-07-28T10:37:12.394Z,53.50
2022-07-28T10:39:42.372Z,53.00
2022-07-28T10:42:12.324Z,53.00
2022-07-28T10:44:41.748Z,53.53
2022-07-28T10:47:18.321Z,53.20
2022-07-28T10:49:49.017Z,53.37
2022-07-28T10:52:46.137Z,53.31
2022-07-28T10:55:07.875Z,53.46
2022-07-28T10:57:42.992Z,53.35
2022-07-28T11:00:26.776Z,53.55
2022-07-28T11:02:57.747Z,53.10
2022-07-28T11:05:39.255Z,53.27
2022-07-28T11:08:10.577Z,52.98
2022-07-28T11:10:51.775Z,52.92
2022-07-28T11:13:28.854Z,53.06
2022-07-28T11:16:15.757Z,52.79
2022-07-28T11:19:01.980Z,53.03
2022-07-28T11:21:40.968Z,53.14
2022-07-28T11:24:12.945Z,52.88
2022-07-28T11:26:45.354Z,53.08
2022-07-28T11:29:12.601Z,53.25
2022-07-28T11:31:48.755Z,52.86
2022-07-28T11:34:24.814Z,53.19
2022-07-28T11:36:57.973Z,53.21
2022-07-28T11:39:27.163Z,53.19
2022-07-28T11:41:54.554Z,53.00
2022-07-28T11:44:30.116Z,53.26
2022-07-28T11:47:17.402Z,53.24
2022-07-28T11:49:46.444Z,53.25
2022-07-28T11:52:19.565Z,52.87
2022-07-28T11:54:50.318Z,52.54
2022-07-28T11:57:19.590Z,52.66
2022-07-28T11:59:50.029Z,52.91
2022-07-28T12:02:20.511Z,52.95
2022-07-28T12:05:00.519Z,52.92
2022-07-28T12:07:35.110Z,53.10
2022-07-28T12:10:44.100Z,53.24
2022-07-28T12:13:11.001Z,52.60
2022-07-28T12:15:38.524Z,53.08
2022-07-28T12:18:11.418Z,52.72
2022-07-28T12:20:48.612Z,52.96
2022-07-28T12:23:16.227Z,52.83
2022-07-28T12:25:45.985Z,52.58
2022-07-28T12:28:18.683Z,52.63
2022-07-28T12:30:46.952Z,52.67
2022-07-28T12:33:32.116Z,52.37
2022-07-28T12:35:59.662Z,52.27
2022-07-28T12:38:28.560Z,52.30
2022-07-28T12:40:56.001Z,52.31
2022-07-28T12:43:28.044Z,52.28
2022-07-28T12:45:55.854Z,52.46
2022-07-28T12:48:23.596Z,52.33
2022-07-28T12:50:50.946Z,52.49
2022-07-28T12:53:21.421Z,52.39
2022-07-28T12:55:48.837Z,52.11
2022-07-28T12:58:24.817Z,52.57
2022-07-28T13:00:52.905Z,52.27
2022-07-28T13:03:26.653Z,52.14
2022-07-28T13:06:05.044Z,52.53
2022-07-28T13:08:45.464Z,52.52
2022-07-28T13:11:42.509Z,52.31
2022-07-28T13:14:02.982Z,52.10
2022-07-28T13:16:30.436Z,52.37
2022-07-28T13:19:02.722Z,52.36
2022-07-28T13:22:01.665Z,52.43
2022-07-28T13:24:32.031Z,52.18
2022-07-28T13:27:01.798Z,52.20
2022-07-28T13:29:32.617Z,52.64
2022-07-28T13:32:00.572Z,52.40
2022-07-28T13:34:28.016Z,52.40
2022-07-28T13:36:57.034Z,52.39
2022-07-28T13:39:25.489Z,52.17
2022-07-28T13:41:58.410Z,52.27
2022-07-28T13:44:35.322Z,52.06
2022-07-28T13:47:05.773Z,52.28
2022-07-28T13:49:35.206Z,52.15
2022-07-28T13:52:04.454Z,52.24
2022-07-28T13:54:33.660Z,52.32
2022-07-28T13:57:01.040Z,52.54
2022-07-28T13:59:28.392Z,52.38
2022-07-28T14:01:58.522Z,52.51
2022-07-28T14:04:26.184Z,51.97
2022-07-28T14:06:54.085Z,52.04
2022-07-28T14:09:21.674Z,52.27
2022-07-28T14:11:49.348Z,52.22
2022-07-28T14:14:20.023Z,52.46
2022-07-28T14:16:48.159Z,52.12
2022-07-28T14:19:23.444Z,52.51
2022-07-28T14:22:07.893Z,52.47
2022-07-28T14:24:39.992Z,52.09
2022-07-28T14:27:07.394Z,52.37
2022-07-28T14:29:34.707Z,52.54
2022-07-28T14:32:01.987Z,52.43
2022-07-28T14:34:29.231Z,52.67
2022-07-28T14:36:56.570Z,52.54
2022-07-28T14:39:23.984Z,52.47
2022-07-28T14:41:51.308Z,52.44
2022-07-28T14:44:24.569Z,52.23
2022-07-28T14:46:52.495Z,52.50
2022-07-28T14:49:19.921Z,52.33
2022-07-28T14:51:49.960Z,52.64
2022-07-28T14:54:17.665Z,52.71
2022-07-28T14:56:45.231Z,52.29
2022-07-28T14:59:12.630Z,52.11
2022-07-28T15:01:40.541Z,50.53
2022-07-28T15:04:10.025Z,50.84
2022-07-28T15:06:37.319Z,49.73
2022-07-28T15:09:04.749Z,48.81
2022-07-28T15:11:32.383Z,48.44
2022-07-28T15:13:59.706Z,47.91
2022-07-28T15:16:27.069Z,47.49
2022-07-28T15:18:55.470Z,47.25
2022-07-28T15:21:22.804Z,46.82
2022-07-28T15:23:50.096Z,46.13
2022-07-28T15:26:17.474Z,45.77
2022-07-28T15:28:46.725Z,45.77
2022-07-28T15:31:15.113Z,45.13
2022-07-28T15:33:51.691Z,44.79
2022-07-28T15:36:28.159Z,44.15
2022-07-28T15:38:55.510Z,44.20
2022-07-28T15:41:22.881Z,44.06
2022-07-28T15:44:00.668Z,43.55
2022-07-28T15:46:28.168Z,43.23
2022-07-28T15:48:55.670Z,42.81
2022-07-28T15:51:26.098Z,42.69
2022-07-28T15:53:56.364Z,42.34
2022-07-28T15:56:23.866Z,42.08
2022-07-28T15:58:51.196Z,42.48
2022-07-28T16:01:21.144Z,43.13
2022-07-28T16:03:49.188Z,43.81
2022-07-28T16:06:16.998Z,44.15
2022-07-28T16:08:44.401Z,44.81
2022-07-28T16:11:12.212Z,44.96
2022-07-28T16:13:43.250Z,45.18
2022-07-28T16:16:14.786Z,45.19
2022-07-28T16:18:44.127Z,45.37
2022-07-28T16:21:11.742Z,45.47
2022-07-28T16:23:39.038Z,45.53
2022-07-28T16:26:08.666Z,45.63
2022-07-28T16:28:36.650Z,45.65
2022-07-28T16:31:04.314Z,45.84
2022-07-28T16:33:33.230Z,45.63
2022-07-28T16:36:02.411Z,45.79
2022-07-28T16:38:30.259Z,45.73
2022-07-28T16:40:57.725Z,46.04
2022-07-28T16:43:27.282Z,45.86
2022-07-28T16:45:54.923Z,46.00
2022-07-28T16:48:22.500Z,45.94
2022-07-28T16:50:51.376Z,46.26
2022-07-28T16:53:18.835Z,46.05
2022-07-28T16:55:48.193Z,46.22
2022-07-28T16:58:15.603Z,46.14
2022-07-28T17:00:43.562Z,46.53
2022-07-28T17:03:11.003Z,46.41
2022-07-28T17:05:38.823Z,46.45
2022-07-28T17:08:06.224Z,46.44
2022-07-28T17:10:33.586Z,46.86
2022-07-28T17:13:01.023Z,46.88
2022-07-28T17:15:28.353Z,47.05
2022-07-28T17:17:56.133Z,47.46
2022-07-28T17:20:25.325Z,47.32
2022-07-28T17:22:52.828Z,47.66
2022-07-28T17:25:56.477Z,47.66
2022-07-28T17:28:07.564Z,47.77
2022-07-28T17:30:35.868Z,47.61
2022-07-28T17:33:08.734Z,47.40
2022-07-28T17:35:37.196Z,47.68
2022-07-28T17:38:07.115Z,48.25
2022-07-28T17:40:36.841Z,48.14
2022-07-28T17:43:04.151Z,47.52
2022-07-28T17:45:31.573Z,47.66
2022-07-28T17:47:58.881Z,47.39
2022-07-28T17:50:26.186Z,47.55
2022-07-28T17:52:53.528Z,47.24
2022-07-28T17:55:58.180Z,47.84
2022-07-28T17:58:28.664Z,47.78
2022-07-28T18:00:58.093Z,47.87
2022-07-28T18:03:29.863Z,48.03
2022-07-28T18:06:17.732Z,47.49
2022-07-28T18:08:48.179Z,47.51
2022-07-28T18:11:15.735Z,47.33
2022-07-28T18:14:04.488Z,47.32
2022-07-28T18:16:35.599Z,47.24
2022-07-28T18:19:03.846Z,47.02
2022-07-28T18:21:31.163Z,47.21
2022-07-28T18:24:00.519Z,46.96
2022-07-28T18:26:27.843Z,46.90
2022-07-28T18:28:55.132Z,47.01
2022-07-28T18:31:22.517Z,46.86
2022-07-28T18:33:49.885Z,47.01
2022-07-28T18:36:17.241Z,47.33
2022-07-28T18:38:44.644Z,47.43
2022-07-28T18:41:11.940Z,47.76
2022-07-28T18:43:39.246Z,47.94
2022-07-28T18:46:06.556Z,47.96
2022-07-28T18:48:33.989Z,48.25
2022-07-28T18:51:01.412Z,48.09
2022-07-28T18:53:28.912Z,47.99
2022-07-28T18:55:56.233Z,48.04
2022-07-28T18:58:24.119Z,48.15
2022-07-28T19:00:51.602Z,48.56
2022-07-28T19:03:18.960Z,48.73
2022-07-28T19:05:46.683Z,48.91
2022-07-28T19:08:14.038Z,48.89
2022-07-28T19:10:41.396Z,48.68
2022-07-28T19:13:12.834Z,48.91
2022-07-28T19:15:41.557Z,48.80
2022-07-28T19:18:11.758Z,49.08
2022-07-28T19:20:40.184Z,49.89
2022-07-28T19:23:07.518Z,49.66
2022-07-28T19:25:36.466Z,49.70
2022-07-28T19:28:05.162Z,49.81
2022-07-28T19:30:32.623Z,49.72
2022-07-28T19:33:00.272Z,49.72
2022-07-28T19:35:27.818Z,49.82
2022-07-28T19:37:59.603Z,49.93
2022-07-28T19:40:29.736Z,50.22
2022-07-28T19:43:00.207Z,50.37
2022-07-28T19:45:27.699Z,52.39
2022-07-28T19:47:55.109Z,52.81
2022-07-28T19:50:23.346Z,52.98
2022-07-28T19:52:50.717Z,53.47
2022-07-28T19:55:18.122Z,53.61
2022-07-28T19:57:49.588Z,54.12
2022-07-28T20:00:17.703Z,54.17
2022-07-28T20:02:45.904Z,54.49
2022-07-28T20:05:13.810Z,54.74
2022-07-28T20:07:42.342Z,54.24
2022-07-28T20:10:10.010Z,54.70
2022-07-28T20:12:37.558Z,55.10
2022-07-28T20:15:05.959Z,54.92
2022-07-28T20:17:39.033Z,53.38
2022-07-28T20:20:09.557Z,53.04
2022-07-28T20:22:37.511Z,52.65
2022-07-28T20:25:05.384Z,52.91
2022-07-28T20:27:42.071Z,52.67
2022-07-28T20:30:10.727Z,52.90
2022-07-28T20:32:38.753Z,53.08
2022-07-28T20:35:09.579Z,53.44
2022-07-28T20:37:37.953Z,53.10
2022-07-28T20:40:09.229Z,52.72
2022-07-28T20:42:37.025Z,52.47
2022-07-28T20:45:05.404Z,53.02
2022-07-28T20:47:33.500Z,52.73
2022-07-28T20:50:01.559Z,52.99
2022-07-28T20:52:29.044Z,52.44
2022-07-28T20:54:56.386Z,52.45
2022-07-28T20:57:23.687Z,52.56
2022-07-28T20:59:52.227Z,52.55
2022-07-28T21:02:20.845Z,52.09
2022-07-28T21:04:50.621Z,53.06
2022-07-28T21:08:00.090Z,52.25
2022-07-28T21:10:07.900Z,52.56
2022-07-28T21:12:37.190Z,53.24
2022-07-28T21:15:06.384Z,53.87
2022-07-28T21:17:34.336Z,54.17
2022-07-28T21:20:01.983Z,54.58
2022-07-28T21:22:29.320Z,54.78
2022-07-28T21:24:57.280Z,54.74
2022-07-28T21:27:24.951Z,55.04
2022-07-28T21:32:18.849Z,54.46
2022-07-28T21:34:46.647Z,54.20
2022-07-28T21:37:14.329Z,53.68
2022-07-28T21:39:41.650Z,53.70
2022-07-28T21:42:09.560Z,53.77
2022-07-28T21:44:37.653Z,53.91
2022-07-28T21:47:05.322Z,54.26
2022-07-28T21:49:32.861Z,53.98
2022-07-28T21:52:00.309Z,53.92
2022-07-28T21:54:27.931Z,53.91
2022-07-28T21:56:55.289Z,53.45
2022-07-28T21:59:22.649Z,53.33
2022-07-28T22:01:50.018Z,53.05
2022-07-28T22:04:17.915Z,53.07
2022-07-28T22:06:46.412Z,53.66
2022-07-28T22:09:15.164Z,53.66
2022-07-28T22:11:42.558Z,54.27
2022-07-28T22:14:09.991Z,54.05
2022-07-28T22:16:37.438Z,53.92
2022-07-28T22:19:05.057Z,54.06
2022-07-28T22:21:32.414Z,53.88
2022-07-28T22:23:59.900Z,54.07
2022-07-28T22:26:27.198Z,53.40
2022-07-28T22:28:54.516Z,53.78
2022-07-28T22:31:21.806Z,53.24
2022-07-28T22:33:49.120Z,53.39
2022-07-28T22:36:16.464Z,53.41
2022-07-28T22:38:43.924Z,53.16
2022-07-28T22:41:11.245Z,53.52
2022-07-28T22:43:38.527Z,53.85
2022-07-28T22:46:05.909Z,54.12
2022-07-28T22:48:33.253Z,54.29
2022-07-28T22:51:00.608Z,54.21
2022-07-28T22:53:27.962Z,54.14
2022-07-28T22:58:40.271Z,54.25
2022-07-28T23:01:07.821Z,53.98
2022-07-28T23:03:36.722Z,53.83
2022-07-28T23:06:08.279Z,53.88
2022-07-28T23:08:35.669Z,53.60
2022-07-28T23:11:03.363Z,53.43
2022-07-28T23:13:33.458Z,53.58
2022-07-28T23:16:02.769Z,53.62
2022-07-28T23:18:30.474Z,53.45
2022-07-28T23:20:57.851Z,53.51
2022-07-28T23:23:25.329Z,53.39
2022-07-28T23:25:52.763Z,53.40
2022-07-28T23:28:20.142Z,53.17
2022-07-28T23:30:48.303Z,53.19
2022-07-28T23:33:54.072Z,53.11
2022-07-28T23:36:09.689Z,53.17
2022-07-28T23:38:47.330Z,53.15
2022-07-28T23:41:15.146Z,53.25
2022-07-28T23:43:42.679Z,53.43
2022-07-28T23:46:10.207Z,53.04
2022-07-28T23:48:37.751Z,52.98
2022-07-28T23:51:05.245Z,53.09
2022-07-28T23:53:32.793Z,52.89
2022-07-28T23:56:00.282Z,52.91
2022-07-28T23:58:28.051Z,53.23
